createdAt,value
2022-11-12T00:00:59.794Z,13.95
2022-11-12T00:03:28.098Z,13.96
2022-11-12T00:05:55.113Z,13.97
2022-11-12T00:08:22.797Z,13.97
2022-11-12T00:10:50.390Z,13.98
2022-11-12T00:13:17.435Z,13.97
2022-11-12T00:15:46.391Z,13.96
2022-11-12T00:18:13.592Z,13.93
2022-11-12T00:20:42.234Z,13.90
2022-11-12T00:23:09.418Z,13.89
2022-11-12T00:25:36.467Z,13.87
2022-11-12T00:28:06.385Z,13.87
2022-11-12T00:30:33.670Z,13.81
2022-11-12T00:33:02.661Z,13.79
2022-11-12T00:35:31.672Z,13.79
2022-11-12T00:38:00.994Z,13.79
2022-11-12T00:40:29.206Z,13.82
2022-11-12T00:42:56.231Z,13.83
2022-11-12T00:45:23.807Z,13.82
2022-11-12T00:47:54.382Z,13.82
2022-11-12T00:50:21.483Z,13.83
2022-11-12T00:52:48.510Z,13.82
2022-11-12T00:55:16.932Z,13.82
2022-11-12T00:57:43.890Z,13.84
2022-11-12T01:00:16.647Z,13.85
2022-11-12T01:02:49.445Z,13.86
2022-11-12T01:05:18.761Z,13.86
2022-11-12T01:07:45.922Z,13.86
2022-11-12T01:10:14.224Z,13.87
2022-11-12T01:12:42.596Z,13.85
2022-11-12T01:15:10.341Z,13.84
2022-11-12T01:17:37.296Z,13.83
2022-11-12T01:20:05.554Z,13.80
2022-11-12T01:22:32.504Z,13.75
2022-11-12T01:24:59.487Z,13.71
2022-11-12T01:27:26.601Z,13.67
2022-11-12T01:29:54.883Z,13.67
2022-11-12T01:32:21.905Z,13.66
2022-11-12T01:34:50.592Z,13.64
2022-11-12T01:37:17.540Z,13.60
2022-11-12T01:39:44.483Z,13.58
2022-11-12T01:42:12.253Z,13.59
2022-11-12T01:44:44.548Z,13.54
2022-11-12T01:47:19.673Z,13.51
2022-11-12T01:49:57.283Z,13.48
2022-11-12T01:52:31.691Z,13.42
2022-11-12T01:55:06.801Z,13.35
2022-11-12T01:57:39.361Z,13.30
2022-11-12T02:00:10.839Z,13.24
2022-11-12T02:02:40.778Z,13.22
2022-11-12T02:05:10.868Z,13.21
2022-11-12T02:07:42.116Z,13.19
2022-11-12T02:10:10.278Z,13.18
2022-11-12T02:12:56.494Z,13.18
2022-11-12T02:15:23.542Z,13.14
2022-11-12T02:17:52.774Z,13.09
2022-11-12T02:20:20.357Z,13.01
2022-11-12T02:22:48.766Z,12.92
2022-11-12T02:25:22.043Z,12.85
2022-11-12T02:27:53.109Z,12.82
2022-11-12T02:30:31.471Z,12.77
2022-11-12T02:32:58.818Z,12.72
2022-11-12T02:35:25.895Z,12.68
2022-11-12T02:37:54.268Z,12.62
2022-11-12T02:40:21.445Z,12.57
2022-11-12T02:42:48.398Z,12.53
2022-11-12T02:45:16.191Z,12.54
2022-11-12T02:47:43.368Z,12.55
2022-11-12T02:50:11.242Z,12.55
2022-11-12T02:52:39.727Z,12.57
2022-11-12T02:55:09.755Z,12.61
2022-11-12T02:57:38.467Z,12.65
2022-11-12T03:00:10.115Z,12.71
2022-11-12T03:02:43.211Z,12.69
2022-11-12T03:05:11.247Z,12.70
2022-11-12T03:07:38.715Z,12.74
2022-11-12T03:10:08.476Z,12.80
2022-11-12T03:12:35.423Z,12.81
2022-11-12T03:15:02.396Z,12.82
2022-11-12T03:17:30.193Z,12.85
2022-11-12T03:19:57.111Z,12.86
2022-11-12T03:22:24.036Z,12.88
2022-11-12T03:24:50.964Z,12.88
2022-11-12T03:27:19.253Z,12.88
2022-11-12T03:29:46.220Z,12.90
2022-11-12T03:32:13.192Z,12.91
2022-11-12T03:34:40.112Z,12.86
2022-11-12T03:37:09.412Z,12.75
2022-11-12T03:39:36.634Z,12.61
2022-11-12T03:42:03.917Z,12.51
2022-11-12T03:44:32.294Z,12.36
2022-11-12T03:46:59.303Z,12.28
2022-11-12T03:49:26.281Z,12.27
2022-11-12T03:51:53.227Z,12.30
2022-11-12T03:54:20.163Z,12.27
2022-11-12T03:56:47.100Z,12.22
2022-11-12T03:59:14.006Z,12.19
2022-11-12T04:01:42.288Z,12.19
2022-11-12T04:04:09.950Z,12.23
2022-11-12T04:06:55.704Z,12.26
2022-11-12T04:09:22.652Z,12.23
2022-11-12T04:11:49.595Z,12.20
2022-11-12T04:14:16.537Z,12.16
2022-11-12T04:17:03.305Z,12.10
2022-11-12T04:20:08.660Z,12.02
2022-11-12T04:22:35.679Z,11.99
2022-11-12T04:25:21.188Z,12.01
2022-11-12T04:27:48.106Z,11.98
2022-11-12T04:30:18.828Z,11.97
2022-11-12T04:32:50.855Z,11.96
2022-11-12T04:35:20.911Z,12.01
2022-11-12T04:37:48.530Z,12.03
2022-11-12T04:40:37.298Z,12.03
2022-11-12T04:43:26.912Z,12.02
2022-11-12T04:45:55.305Z,12.03
2022-11-12T04:48:25.459Z,12.07
2022-11-12T04:50:57.760Z,12.11
2022-11-12T04:53:25.625Z,12.11
2022-11-12T04:55:55.024Z,12.08
2022-11-12T04:58:22.797Z,12.03
2022-11-12T05:00:51.343Z,12.05
2022-11-12T05:03:18.865Z,12.01
2022-11-12T05:05:47.149Z,11.92
2022-11-12T05:08:14.113Z,11.84
2022-11-12T05:10:41.069Z,11.80
2022-11-12T05:13:08.011Z,11.71
2022-11-12T05:15:34.922Z,11.56
2022-11-12T05:18:01.956Z,11.46
2022-11-12T05:20:28.936Z,11.41
2022-11-12T05:23:06.868Z,11.41
2022-11-12T05:25:35.278Z,11.43
2022-11-12T05:28:02.212Z,11.45
2022-11-12T05:30:29.135Z,11.48
2022-11-12T05:32:56.114Z,11.51
2022-11-12T05:35:23.095Z,11.52
2022-11-12T05:37:50.043Z,11.52
2022-11-12T05:40:18.299Z,11.52
2022-11-12T05:42:45.471Z,11.54
2022-11-12T05:45:13.978Z,11.52
2022-11-12T05:47:40.934Z,11.53
2022-11-12T05:50:08.973Z,11.56
2022-11-12T05:52:36.408Z,11.60
2022-11-12T05:55:03.511Z,11.65
2022-11-12T05:57:31.765Z,11.57
2022-11-12T05:59:58.756Z,11.54
2022-11-12T06:02:25.712Z,11.53
2022-11-12T06:04:52.623Z,11.57
2022-11-12T06:07:19.652Z,11.54
2022-11-12T06:09:46.614Z,11.51
2022-11-12T06:12:13.553Z,11.51
2022-11-12T06:14:41.841Z,11.53
2022-11-12T06:17:08.782Z,11.56
2022-11-12T06:19:35.725Z,11.57
2022-11-12T06:22:02.667Z,11.56
2022-11-12T06:24:35.122Z,11.57
2022-11-12T06:27:02.410Z,11.63
2022-11-12T06:29:30.085Z,11.64
2022-11-12T06:31:58.341Z,11.56
2022-11-12T06:34:25.278Z,11.51
2022-11-12T06:36:52.208Z,11.50
2022-11-12T06:39:19.416Z,11.54
2022-11-12T06:41:46.328Z,11.63
2022-11-12T06:44:15.594Z,11.65
2022-11-12T06:46:46.190Z,11.62
2022-11-12T06:49:14.570Z,11.62
2022-11-12T06:51:41.574Z,11.66
2022-11-12T06:54:08.509Z,11.64
2022-11-12T06:56:35.422Z,11.61
2022-11-12T06:59:02.559Z,11.60
2022-11-12T07:01:29.484Z,11.60
2022-11-12T07:03:56.501Z,11.63
2022-11-12T07:06:24.832Z,11.66
2022-11-12T07:08:51.759Z,11.71
2022-11-12T07:11:19.963Z,11.74
2022-11-12T07:13:48.032Z,11.79
2022-11-12T07:16:18.480Z,11.84
2022-11-12T07:18:46.839Z,11.89
2022-11-12T07:21:16.424Z,11.94
2022-11-12T07:23:46.402Z,11.97
2022-11-12T07:26:17.727Z,12.06
2022-11-12T07:28:45.340Z,12.15
2022-11-12T07:31:15.303Z,12.21
2022-11-12T07:33:43.053Z,12.24
2022-11-12T07:36:12.835Z,12.27
2022-11-12T07:38:41.981Z,12.24
2022-11-12T07:41:14.599Z,12.21
2022-11-12T07:43:44.522Z,12.22
2022-11-12T07:46:15.434Z,12.24
2022-11-12T07:48:44.473Z,12.29
2022-11-12T07:51:15.110Z,12.26
2022-11-12T07:53:43.628Z,12.19
2022-11-12T07:56:15.056Z,12.14
2022-11-12T07:58:42.564Z,12.12
2022-11-12T08:01:23.193Z,12.07
2022-11-12T08:03:50.240Z,12.01
2022-11-12T08:06:17.171Z,11.99
2022-11-12T08:08:44.074Z,12.05
2022-11-12T08:11:12.411Z,12.08
2022-11-12T08:13:39.386Z,12.04
2022-11-12T08:16:07.214Z,11.98
2022-11-12T08:18:34.224Z,11.91
2022-11-12T08:21:01.638Z,11.90
2022-11-12T08:23:29.357Z,11.96
2022-11-12T08:25:58.808Z,12.02
2022-11-12T08:28:29.369Z,11.92
2022-11-12T08:30:57.691Z,11.81
2022-11-12T08:33:24.790Z,11.77
2022-11-12T08:35:51.691Z,11.88
2022-11-12T08:38:18.760Z,12.01
2022-11-12T08:40:45.699Z,12.13
2022-11-12T08:43:12.679Z,12.24
2022-11-12T08:45:42.435Z,12.38
2022-11-12T08:48:14.217Z,12.55
2022-11-12T08:50:41.821Z,12.67
2022-11-12T08:53:11.443Z,12.76
2022-11-12T08:55:38.674Z,12.82
2022-11-12T08:58:06.460Z,12.84
2022-11-12T09:00:39.662Z,12.91
2022-11-12T09:03:14.019Z,13.02
2022-11-12T09:05:41.721Z,13.16
2022-11-12T09:08:11.230Z,13.30
2022-11-12T09:10:38.922Z,13.42
2022-11-12T09:13:06.298Z,13.48
2022-11-12T09:15:38.398Z,13.57
2022-11-12T09:18:12.579Z,13.69
2022-11-12T09:20:40.022Z,14.06
2022-11-12T09:23:12.672Z,14.69
2022-11-12T09:25:40.637Z,15.38
2022-11-12T09:28:10.010Z,15.84
2022-11-12T09:30:38.009Z,16.13
2022-11-12T09:33:05.324Z,16.31
2022-11-12T09:35:33.841Z,16.41
2022-11-12T09:38:00.849Z,16.41
2022-11-12T09:40:46.037Z,16.40
2022-11-12T09:43:24.819Z,16.62
2022-11-12T09:46:21.475Z,16.82
2022-11-12T09:48:51.727Z,16.86
2022-11-12T09:51:27.167Z,16.86
2022-11-12T09:53:57.752Z,16.87
2022-11-12T09:56:28.242Z,16.96
2022-11-12T09:58:55.612Z,17.23
2022-11-12T10:01:38.704Z,17.58
2022-11-12T10:04:28.149Z,17.87
2022-11-12T10:07:06.135Z,17.99
2022-11-12T10:09:48.076Z,17.97
2022-11-12T10:12:31.521Z,17.95
2022-11-12T10:15:55.629Z,17.85
2022-11-12T10:18:39.580Z,17.79
2022-11-12T10:21:22.775Z,17.74
2022-11-12T10:23:53.760Z,17.70
2022-11-12T10:26:24.796Z,17.67
2022-11-12T10:28:57.861Z,17.66
2022-11-12T10:31:24.923Z,17.66
2022-11-12T10:34:02.167Z,17.69
2022-11-12T10:36:33.859Z,17.72
2022-11-12T10:39:02.260Z,17.72
2022-11-12T10:41:32.423Z,17.67
2022-11-12T10:44:02.444Z,17.59
2022-11-12T10:46:33.075Z,17.50
2022-11-12T10:49:03.466Z,17.44
2022-11-12T10:51:33.182Z,17.38
2022-11-12T10:54:20.736Z,17.29
2022-11-12T10:56:55.103Z,17.23
2022-11-12T10:59:24.393Z,17.17
2022-11-12T11:01:57.585Z,17.12
2022-11-12T11:04:35.832Z,17.09
2022-11-12T11:07:06.879Z,17.08
2022-11-12T11:09:35.623Z,17.09
2022-11-12T11:12:03.242Z,17.13
2022-11-12T11:14:34.120Z,17.19
2022-11-12T11:17:08.585Z,17.27
2022-11-12T11:19:39.619Z,17.37
2022-11-12T11:22:35.197Z,17.47
2022-11-12T11:25:23.021Z,17.56
2022-11-12T11:28:05.212Z,17.66
2022-11-12T11:30:33.557Z,17.71
2022-11-12T11:33:25.636Z,17.74
2022-11-12T11:36:21.944Z,17.85
2022-11-12T11:38:59.722Z,17.98
2022-11-12T11:41:47.100Z,18.08
2022-11-12T11:44:31.577Z,18.14
2022-11-12T11:47:19.511Z,18.17
2022-11-12T11:50:16.371Z,18.20
2022-11-12T11:52:53.800Z,18.26
2022-11-12T11:55:37.065Z,18.33
2022-11-12T11:58:52.231Z,18.39
2022-11-12T12:01:31.359Z,18.45
2022-11-12T12:04:32.906Z,18.44
2022-11-12T12:07:17.986Z,18.55
2022-11-12T12:09:53.162Z,18.61
2022-11-12T12:12:40.231Z,18.62
2022-11-12T12:15:36.821Z,18.60
2022-11-12T12:18:16.296Z,18.60
2022-11-12T12:20:53.952Z,18.60
2022-11-12T12:23:30.107Z,18.64
2022-11-12T12:26:01.192Z,18.72
2022-11-12T12:28:40.064Z,18.73
2022-11-12T12:31:17.047Z,18.76
2022-11-12T12:33:51.555Z,18.72
2022-11-12T12:36:26.896Z,18.74
2022-11-12T12:39:04.866Z,18.76
2022-11-12T12:41:42.604Z,18.81
2022-11-12T12:44:11.099Z,18.85
2022-11-12T12:46:44.475Z,18.91
2022-11-12T12:49:19.048Z,18.98
2022-11-12T12:51:47.081Z,19.02
2022-11-12T12:54:57.381Z,18.94
2022-11-12T12:57:34.849Z,19.01
2022-11-12T13:00:31.760Z,18.99
2022-11-12T13:03:00.848Z,18.97
2022-11-12T13:05:32.168Z,18.92
2022-11-12T13:08:05.896Z,18.87
2022-11-12T13:10:53.901Z,18.81
2022-11-12T13:13:32.339Z,18.81
2022-11-12T13:16:02.142Z,18.80
2022-11-12T13:19:02.021Z,18.69
2022-11-12T13:21:30.297Z,18.71
2022-11-12T13:24:09.082Z,18.68
2022-11-12T13:26:52.669Z,18.58
2022-11-12T13:29:42.950Z,18.47
2022-11-12T13:32:33.978Z,18.44
2022-11-12T13:35:30.067Z,18.37
2022-11-12T13:38:01.823Z,18.39
2022-11-12T13:40:43.889Z,18.34
2022-11-12T13:43:23.066Z,18.30
2022-11-12T13:45:57.561Z,18.27
2022-11-12T13:48:29.800Z,18.27
2022-11-12T13:51:06.083Z,18.23
2022-11-12T13:53:33.267Z,18.24
2022-11-12T13:56:00.436Z,18.25
2022-11-12T13:58:30.875Z,18.24
2022-11-12T14:01:01.288Z,18.23
2022-11-12T14:03:36.601Z,18.20
2022-11-12T14:06:15.149Z,18.15
2022-11-12T14:09:29.614Z,18.07
2022-11-12T14:12:26.619Z,18.05
2022-11-12T14:15:18.544Z,18.05
2022-11-12T14:18:00.028Z,18.06
2022-11-12T14:20:33.118Z,18.08
2022-11-12T14:23:13.860Z,18.05
2022-11-12T14:25:49.210Z,18.03
2022-11-12T14:28:27.971Z,17.97
2022-11-12T14:30:56.427Z,17.96
2022-11-12T14:33:26.724Z,17.96
2022-11-12T14:35:59.367Z,17.94
2022-11-12T14:38:33.232Z,17.90
2022-11-12T14:41:07.724Z,17.82
2022-11-12T14:43:41.383Z,17.80
2022-11-12T14:46:21.125Z,17.77
2022-11-12T14:48:53.563Z,17.79
2022-11-12T14:51:24.547Z,17.78
2022-11-12T14:53:58.868Z,17.75
2022-11-12T14:56:35.790Z,17.74
2022-11-12T14:59:04.241Z,17.73
2022-11-12T15:02:14.491Z,17.73
2022-11-12T15:04:25.734Z,17.69
2022-11-12T15:06:55.033Z,17.67
2022-11-12T15:09:36.194Z,17.59
2022-11-12T15:12:08.914Z,17.61
2022-11-12T15:14:36.355Z,17.58
2022-11-12T15:17:05.934Z,17.59
2022-11-12T15:19:35.174Z,17.58
2022-11-12T15:22:08.770Z,17.53
2022-11-12T15:24:38.956Z,17.53
2022-11-12T15:27:34.173Z,17.49
2022-11-12T15:30:16.296Z,17.47
2022-11-12T15:32:44.425Z,17.44
2022-11-12T15:35:33.196Z,17.36
2022-11-12T15:38:05.542Z,17.34
2022-11-12T15:40:46.046Z,17.28
2022-11-12T15:43:16.859Z,17.24
2022-11-12T15:45:48.695Z,17.16
2022-11-12T15:48:15.732Z,17.13
2022-11-12T15:50:42.924Z,17.11
2022-11-12T15:53:10.012Z,17.08
2022-11-12T15:55:39.964Z,17.07
2022-11-12T15:58:15.697Z,17.02
2022-11-12T16:00:43.000Z,17.00
2022-11-12T16:03:15.370Z,16.97
2022-11-12T16:05:45.278Z,16.98
2022-11-12T16:08:13.114Z,16.99
2022-11-12T16:10:45.272Z,16.96
2022-11-12T16:13:16.505Z,16.92
2022-11-12T16:15:43.541Z,16.84
2022-11-12T16:18:14.550Z,16.80
2022-11-12T16:20:41.532Z,16.75
2022-11-12T16:23:08.990Z,16.75
2022-11-12T16:25:40.506Z,16.77
2022-11-12T16:28:15.886Z,16.76
2022-11-12T16:30:45.378Z,16.75
2022-11-12T16:33:13.588Z,16.73
2022-11-12T16:35:41.366Z,16.71
2022-11-12T16:38:14.743Z,16.64
2022-11-12T16:40:42.857Z,16.57
2022-11-12T16:43:11.223Z,16.49
2022-11-12T16:45:41.656Z,16.41
2022-11-12T16:48:17.046Z,16.33
2022-11-12T16:50:45.281Z,16.26
2022-11-12T16:53:13.392Z,16.22
2022-11-12T16:55:41.017Z,16.23
2022-11-12T16:58:13.753Z,16.24
2022-11-12T17:00:43.960Z,16.26
2022-11-12T17:03:13.818Z,16.28
2022-11-12T17:05:40.834Z,16.31
2022-11-12T17:08:11.023Z,16.32
2022-11-12T17:10:38.500Z,16.28
2022-11-12T17:13:05.503Z,16.27
2022-11-12T17:15:33.858Z,16.25
2022-11-12T17:18:00.786Z,16.23
2022-11-12T17:20:27.825Z,16.23
2022-11-12T17:22:54.811Z,16.21
2022-11-12T17:25:21.799Z,16.19
2022-11-12T17:27:48.761Z,16.16
2022-11-12T17:30:16.013Z,16.13
2022-11-12T17:32:44.393Z,16.09
2022-11-12T17:35:18.144Z,16.02
2022-11-12T17:37:45.126Z,15.96
2022-11-12T17:40:12.216Z,15.89
2022-11-12T17:42:49.915Z,15.83
2022-11-12T17:45:17.317Z,15.80
2022-11-12T17:47:46.823Z,15.74
2022-11-12T17:50:14.011Z,15.68
2022-11-12T17:52:40.947Z,15.62
2022-11-12T17:55:09.172Z,15.59
2022-11-12T17:57:36.259Z,15.56
2022-11-12T18:00:04.874Z,15.51
2022-11-12T18:02:32.146Z,15.49
2022-11-12T18:05:01.485Z,15.45
2022-11-12T18:07:28.526Z,15.42
2022-11-12T18:09:55.488Z,15.38
2022-11-12T18:12:22.439Z,15.36
2022-11-12T18:14:49.439Z,15.32
2022-11-12T18:17:16.584Z,15.27
2022-11-12T18:19:43.563Z,15.23
2022-11-12T18:22:15.306Z,15.19
2022-11-12T18:24:42.437Z,15.18
2022-11-12T18:27:09.422Z,15.16
2022-11-12T18:29:36.419Z,15.15
2022-11-12T18:32:03.787Z,15.14
2022-11-12T18:34:30.906Z,15.14
2022-11-12T18:36:58.112Z,15.13
2022-11-12T18:39:26.552Z,15.11
2022-11-12T18:41:54.772Z,15.08
2022-11-12T18:44:25.912Z,15.06
2022-11-12T18:46:53.397Z,15.02
2022-11-12T18:49:20.461Z,15.00
2022-11-12T18:51:47.500Z,14.98
2022-11-12T18:54:16.100Z,14.97
2022-11-12T18:56:44.381Z,14.95
2022-11-12T18:59:14.375Z,14.93
2022-11-12T19:01:41.387Z,14.91
2022-11-12T19:04:11.396Z,14.89
2022-11-12T19:06:38.426Z,14.90
2022-11-12T19:09:05.893Z,14.89
2022-11-12T19:11:32.991Z,14.87
2022-11-12T19:14:01.344Z,14.86
2022-11-12T19:16:28.388Z,14.84
2022-11-12T19:18:55.792Z,14.82
2022-11-12T19:21:26.094Z,14.82
2022-11-12T19:23:54.998Z,14.79
2022-11-12T19:26:23.593Z,14.76
2022-11-12T19:28:50.789Z,14.72
2022-11-12T19:31:21.599Z,14.68
2022-11-12T19:33:48.986Z,14.65
2022-11-12T19:36:20.655Z,14.61
2022-11-12T19:38:47.918Z,14.59
2022-11-12T19:41:19.673Z,14.55
2022-11-12T19:43:47.762Z,14.50
2022-11-12T19:46:15.449Z,14.45
2022-11-12T19:48:44.335Z,14.40
2022-11-12T19:51:13.255Z,14.36
2022-11-12T19:53:44.347Z,14.29
2022-11-12T19:56:14.148Z,14.21
2022-11-12T19:58:45.135Z,14.11
2022-11-12T20:01:14.758Z,14.07
2022-11-12T20:03:43.346Z,14.04
2022-11-12T20:06:12.954Z,14.05
2022-11-12T20:08:40.384Z,14.05
2022-11-12T20:11:07.739Z,14.03
2022-11-12T20:13:34.765Z,14.02
2022-11-12T20:16:07.056Z,14.02
2022-11-12T20:18:34.227Z,14.00
2022-11-12T20:21:05.613Z,14.02
2022-11-12T20:23:34.228Z,14.01
2022-11-12T20:26:07.768Z,14.02
2022-11-12T20:28:35.134Z,14.06
2022-11-12T20:31:05.657Z,14.11
2022-11-12T20:33:35.511Z,14.17
2022-11-12T20:36:09.772Z,14.21
2022-11-12T20:38:37.745Z,14.25
2022-11-12T20:41:06.380Z,14.27
2022-11-12T20:43:34.157Z,14.30
2022-11-12T20:46:01.274Z,14.35
2022-11-12T20:48:28.956Z,14.39
2022-11-12T20:51:23.062Z,14.42
2022-11-12T20:53:58.724Z,14.43
2022-11-12T20:56:28.947Z,14.44
2022-11-12T20:58:56.208Z,14.45
2022-11-12T21:01:26.100Z,14.47
2022-11-12T21:03:53.381Z,14.44
2022-11-12T21:06:24.945Z,14.38
2022-11-12T21:08:52.390Z,14.28
2022-11-12T21:11:22.327Z,14.17
2022-11-12T21:13:49.565Z,14.13
2022-11-12T21:16:16.640Z,14.14
2022-11-12T21:18:44.108Z,14.16
2022-11-12T21:21:13.799Z,14.15
2022-11-12T21:23:44.529Z,14.15
2022-11-12T21:26:13.836Z,14.14
2022-11-12T21:28:43.575Z,14.14
2022-11-12T21:31:13.500Z,14.10
2022-11-12T21:33:41.326Z,14.10
2022-11-12T21:36:14.814Z,14.12
2022-11-12T21:38:44.880Z,14.16
2022-11-12T21:41:14.603Z,14.22
2022-11-12T21:43:44.482Z,14.19
2022-11-12T21:46:14.893Z,14.16
2022-11-12T21:48:42.543Z,14.13
2022-11-12T21:51:12.981Z,14.10
2022-11-12T21:53:41.257Z,14.06
2022-11-12T21:56:12.640Z,13.99
2022-11-12T21:58:39.631Z,13.97
2022-11-12T22:01:09.833Z,13.94
2022-11-12T22:03:38.041Z,13.91
2022-11-12T22:06:06.712Z,13.88
2022-11-12T22:08:34.013Z,13.88
2022-11-12T22:11:03.459Z,13.89
2022-11-12T22:13:32.431Z,13.90
2022-11-12T22:16:04.673Z,13.95
2022-11-12T22:18:34.082Z,14.00
2022-11-12T22:21:03.993Z,14.05
2022-11-12T22:23:35.924Z,14.08
2022-11-12T22:26:05.152Z,14.11
2022-11-12T22:28:34.330Z,14.13
2022-11-12T22:31:05.857Z,14.16
2022-11-12T22:33:33.146Z,14.18
2022-11-12T22:36:02.397Z,14.22
2022-11-12T22:38:34.095Z,14.24
2022-11-12T22:41:03.498Z,14.29
2022-11-12T22:43:30.552Z,14.33
2022-11-12T22:46:05.078Z,14.33
2022-11-12T22:48:32.197Z,14.34
2022-11-12T22:51:00.587Z,14.32
2022-11-12T22:53:28.171Z,14.29
2022-11-12T22:55:55.363Z,14.24
2022-11-12T22:58:22.383Z,14.21
2022-11-12T23:00:49.544Z,14.15
2022-11-12T23:03:17.944Z,14.15
2022-11-12T23:05:44.944Z,14.12
2022-11-12T23:08:12.165Z,14.12
2022-11-12T23:10:44.468Z,14.10
2022-11-12T23:13:12.647Z,14.06
2022-11-12T23:15:42.672Z,14.02
2022-11-12T23:18:09.771Z,13.99
2022-11-12T23:20:38.291Z,13.97
2022-11-12T23:23:05.403Z,13.96
2022-11-12T23:25:33.884Z,13.97
2022-11-12T23:28:01.038Z,13.97
2022-11-12T23:30:28.100Z,13.98
2022-11-12T23:32:55.093Z,13.97
2022-11-12T23:35:22.075Z,13.97
2022-11-12T23:37:51.857Z,13.97
2022-11-12T23:40:18.939Z,13.97
2022-11-12T23:42:46.014Z,13.96
2022-11-12T23:45:13.181Z,13.95
2022-11-12T23:47:40.127Z,13.97
2022-11-12T23:50:08.303Z,13.95
2022-11-12T23:52:35.223Z,13.97
2022-11-12T23:55:04.301Z,14.00
2022-11-12T23:57:32.839Z,13.99
2022-11-12T23:59:59.780Z,14.01
